Time;durP1;ratioP1;P1;durP2;ratioP2;P2;SDS_P1;SDS_P2;PMS_P1;PMS_P2;Temp;Humidity;BMP_temperature;BMP_pressure;BME280_temperature;BME280_humidity;BME280_pressure;Samples;Min_cycle;Max_cycle;Signal;HPM_P1;HPM_P2
2021/08/28 00:01:56;;;;;;;13.73;7.13;;;;;;;;;;5011953;28;20830;-49
2021/08/28 00:04:22;;;;;;;10.90;7.87;;;;;;;;;;5011988;28;20913;-49
2021/08/28 00:06:48;;;;;;;10.47;7.73;;;;;;;;;;5012271;28;20954;-50
2021/08/28 00:09:14;;;;;;;13.20;8.93;;;;;;;;;;5011991;28;20837;-50
2021/08/28 00:11:40;;;;;;;11.20;7.27;;;;;;;;;;5011793;28;20446;-48
2021/08/28 00:14:05;;;;;;;15.77;7.77;;;;;;;;;;5012114;28;20370;-49
2021/08/28 00:16:31;;;;;;;10.43;7.77;;;;;;;;;;5011971;28;20872;-49
2021/08/28 00:18:57;;;;;;;9.23;7.77;;;;;;;;;;5012456;28;20414;-48
2021/08/28 00:21:23;;;;;;;10.33;7.80;;;;;;;;;;5011666;28;20419;-48
2021/08/28 00:23:50;;;;;;;11.23;7.60;;;;;;;;;;5012004;28;20437;-48
2021/08/28 00:26:16;;;;;;;9.20;7.80;;;;;;;;;;5011814;28;20403;-47
2021/08/28 00:28:42;;;;;;;14.23;8.73;;;;;;;;;;5011992;28;20403;-49
2021/08/28 00:31:08;;;;;;;11.87;7.73;;;;;;;;;;5011543;28;20456;-49
2021/08/28 00:33:34;;;;;;;10.53;8.67;;;;;;;;;;5011890;28;20384;-48
2021/08/28 00:35:59;;;;;;;8.73;7.83;;;;;;;;;;5011960;28;20410;-50
2021/08/28 00:38:25;;;;;;;10.10;8.83;;;;;;;;;;5011812;28;20437;-49
2021/08/28 00:40:51;;;;;;;12.57;8.70;;;;;;;;;;5011586;28;20412;-49
2021/08/28 00:43:17;;;;;;;11.83;9.10;;;;;;;;;;5011825;28;20410;-49
2021/08/28 00:45:43;;;;;;;11.73;8.40;;;;;;;;;;5011741;28;20426;-49
2021/08/28 00:48:11;;;;;;;12.47;8.70;;;;;;;;;;5011685;28;20448;-48
2021/08/28 00:50:38;;;;;;;18.60;8.33;;;;;;;;;;5011499;28;20454;-49
2021/08/28 00:53:04;;;;;;;11.43;8.37;;;;;;;;;;5013754;28;20492;-47
2021/08/28 00:55:31;;;;;;;21.13;9.33;;;;;;;;;;5015429;28;20447;-49
2021/08/28 00:58:01;;;;;;;10.87;8.40;;;;;;;;;;5015302;28;20438;-48
2021/08/28 01:00:27;;;;;;;12.30;8.80;;;;;;;;;;5015265;28;20960;-48
2021/08/28 01:02:53;;;;;;;15.13;8.97;;;;;;;;;;5014903;28;20419;-49
2021/08/28 01:05:21;;;;;;;13.07;10.20;;;;;;;;;;5014797;28;20414;-48
2021/08/28 01:07:59;;;;;;;24.63;10.30;;;;;;;;;;5015352;28;20401;-50
2021/08/28 01:10:32;;;;;;;12.97;9.53;;;;;;;;;;5014987;28;20432;-48
2021/08/28 01:13:00;;;;;;;13.40;9.47;;;;;;;;;;5014956;28;20415;-50
2021/08/28 01:15:27;;;;;;;23.90;10.13;;;;;;;;;;5015056;28;20372;-50
2021/08/28 01:17:54;;;;;;;14.23;10.63;;;;;;;;;;5015018;28;20425;-48
2021/08/28 01:20:23;;;;;;;16.17;13.30;;;;;;;;;;5014938;28;20460;-48
2021/08/28 01:22:50;;;;;;;22.40;12.87;;;;;;;;;;5014994;28;20409;-49
2021/08/28 01:25:16;;;;;;;19.23;13.60;;;;;;;;;;5014878;28;20381;-49
2021/08/28 01:27:45;;;;;;;20.93;13.70;;;;;;;;;;5014718;28;20432;-50
2021/08/28 01:30:11;;;;;;;16.77;14.17;;;;;;;;;;5014674;28;20455;-49
2021/08/28 01:32:37;;;;;;;18.80;13.77;;;;;;;;;;5014525;28;20408;-50
2021/08/28 01:35:04;;;;;;;15.77;13.50;;;;;;;;;;5014750;28;20406;-50
2021/08/28 01:37:30;;;;;;;18.33;13.40;;;;;;;;;;5014646;28;20394;-48
2021/08/28 01:39:58;;;;;;;16.97;13.20;;;;;;;;;;5014715;28;20378;-49
2021/08/28 01:42:24;;;;;;;21.10;13.77;;;;;;;;;;5014280;28;20373;-48
2021/08/28 01:44:52;;;;;;;18.20;13.47;;;;;;;;;;5014541;28;20488;-49
2021/08/28 01:47:19;;;;;;;17.67;13.73;;;;;;;;;;5014337;28;20426;-49
2021/08/28 01:49:46;;;;;;;23.77;14.93;;;;;;;;;;5014385;28;20961;-48
2021/08/28 01:52:12;;;;;;;20.77;15.27;;;;;;;;;;5014080;28;20435;-49
2021/08/28 01:54:38;;;;;;;20.07;13.90;;;;;;;;;;5014256;28;20388;-48
2021/08/28 01:57:05;;;;;;;19.70;14.30;;;;;;;;;;5014064;28;20449;-48
2021/08/28 01:59:31;;;;;;;20.20;14.27;;;;;;;;;;5014330;28;20426;-48
2021/08/28 02:01:57;;;;;;;16.17;13.40;;;;;;;;;;5013881;28;20430;-48
2021/08/28 02:04:23;;;;;;;20.33;14.43;;;;;;;;;;5013991;28;20894;-46
2021/08/28 02:07:07;;;;;;;21.00;14.67;;;;;;;;;;5014046;28;20430;-48
2021/08/28 02:09:42;;;;;;;20.73;16.30;;;;;;;;;;5014031;28;20440;-50
2021/08/28 02:12:11;;;;;;;19.17;15.07;;;;;;;;;;5013766;28;20915;-49
2021/08/28 02:14:46;;;;;;;28.07;13.93;;;;;;;;;;5014023;28;20402;-50
2021/08/28 02:17:13;;;;;;;16.40;13.20;;;;;;;;;;5013834;28;20515;-48
2021/08/28 02:19:42;;;;;;;20.73;15.20;;;;;;;;;;5013935;28;20380;-48
2021/08/28 02:22:14;;;;;;;22.90;14.97;;;;;;;;;;5013571;28;20453;-49
2021/08/28 02:24:42;;;;;;;18.60;14.30;;;;;;;;;;5014004;28;20917;-47
2021/08/28 02:27:12;;;;;;;18.90;14.97;;;;;;;;;;5013645;28;20472;-49
2021/08/28 02:29:41;;;;;;;18.60;14.03;;;;;;;;;;5013740;28;20474;-46
2021/08/28 02:32:07;;;;;;;20.33;15.37;;;;;;;;;;5013199;28;20780;-49
2021/08/28 02:34:35;;;;;;;16.17;13.90;;;;;;;;;;5013564;28;20403;-49
2021/08/28 02:37:02;;;;;;;20.40;15.13;;;;;;;;;;5013493;28;20427;-49
2021/08/28 02:39:28;;;;;;;18.50;13.93;;;;;;;;;;5013584;28;20410;-50
2021/08/28 02:41:55;;;;;;;26.67;15.97;;;;;;;;;;5013123;28;20413;-49
2021/08/28 02:44:21;;;;;;;22.07;14.70;;;;;;;;;;5013496;28;20407;-49
2021/08/28 02:46:48;;;;;;;17.20;14.73;;;;;;;;;;5013172;28;20435;-49
2021/08/28 02:49:15;;;;;;;21.23;13.73;;;;;;;;;;5013312;28;20425;-49
2021/08/28 02:51:42;;;;;;;23.90;16.00;;;;;;;;;;5012943;28;20381;-50
2021/08/28 02:54:11;;;;;;;21.60;14.80;;;;;;;;;;5013350;28;20401;-49
2021/08/28 02:56:39;;;;;;;23.13;15.40;;;;;;;;;;5013748;28;20422;-48
2021/08/28 02:59:04;;;;;;;28.53;15.87;;;;;;;;;;5013604;28;20506;-50
2021/08/28 03:01:32;;;;;;;23.60;15.47;;;;;;;;;;5012676;28;20505;-48
2021/08/28 03:03:58;;;;;;;24.10;14.97;;;;;;;;;;5013101;28;20409;-48
2021/08/28 03:06:28;;;;;;;21.17;15.57;;;;;;;;;;5012954;28;20865;-48
2021/08/28 03:08:55;;;;;;;30.63;16.57;;;;;;;;;;5013039;28;20862;-48
2021/08/28 03:11:21;;;;;;;21.53;16.03;;;;;;;;;;5012565;28;20457;-50
2021/08/28 03:13:47;;;;;;;27.10;16.23;;;;;;;;;;5012868;28;20410;-49
2021/08/28 03:16:14;;;;;;;21.73;16.40;;;;;;;;;;5012574;28;20776;-48
2021/08/28 03:18:41;;;;;;;25.37;18.10;;;;;;;;;;5012969;28;20799;-50
2021/08/28 03:21:08;;;;;;;25.63;19.43;;;;;;;;;;5012645;28;20891;-49
2021/08/28 03:23:35;;;;;;;41.30;22.87;;;;;;;;;;5012646;28;20897;-50
2021/08/28 03:26:01;;;;;;;40.87;22.87;;;;;;;;;;5012783;28;20378;-49
2021/08/28 03:28:28;;;;;;;36.73;23.00;;;;;;;;;;5012413;28;20949;-49
2021/08/28 03:30:54;;;;;;;40.30;22.37;;;;;;;;;;5012201;28;20498;-48
2021/08/28 03:33:20;;;;;;;45.17;23.27;;;;;;;;;;5012693;28;20393;-49
2021/08/28 03:35:47;;;;;;;45.80;23.90;;;;;;;;;;5012684;28;20399;-49
2021/08/28 03:38:14;;;;;;;39.20;24.40;;;;;;;;;;5012396;28;21047;-49
2021/08/28 03:40:40;;;;;;;42.40;23.80;;;;;;;;;;5012477;28;20469;-49
2021/08/28 03:43:06;;;;;;;40.23;22.17;;;;;;;;;;5012038;28;20807;-49
2021/08/28 03:45:32;;;;;;;41.23;23.73;;;;;;;;;;5012403;28;20402;-49
2021/08/28 03:47:59;;;;;;;39.00;23.30;;;;;;;;;;5012238;28;20481;-49
2021/08/28 03:50:24;;;;;;;38.03;23.60;;;;;;;;;;5012250;28;20512;-49
2021/08/28 03:52:50;;;;;;;42.03;25.30;;;;;;;;;;5011921;28;20406;-49
2021/08/28 03:55:16;;;;;;;41.27;25.10;;;;;;;;;;5012753;28;20399;-49
2021/08/28 03:57:42;;;;;;;48.80;22.50;;;;;;;;;;5011890;28;20662;-48
2021/08/28 04:00:09;;;;;;;45.20;25.87;;;;;;;;;;5012151;28;20403;-48
2021/08/28 04:02:35;;;;;;;35.37;21.93;;;;;;;;;;5011898;28;20815;-49
2021/08/28 04:05:01;;;;;;;42.60;25.20;;;;;;;;;;5012216;28;20512;-49
2021/08/28 04:07:27;;;;;;;37.63;22.90;;;;;;;;;;5012007;28;20511;-50
2021/08/28 04:09:53;;;;;;;45.27;23.60;;;;;;;;;;5012010;28;20453;-50
2021/08/28 04:12:19;;;;;;;37.10;23.47;;;;;;;;;;5011713;28;20906;-48
2021/08/28 04:14:45;;;;;;;40.67;22.33;;;;;;;;;;5012019;28;20381;-49
2021/08/28 04:17:11;;;;;;;39.20;21.70;;;;;;;;;;5012124;28;20389;-48
2021/08/28 04:19:37;;;;;;;42.23;25.30;;;;;;;;;;5012019;28;20469;-48
2021/08/28 04:22:03;;;;;;;39.50;22.33;;;;;;;;;;5011703;28;20414;-46
2021/08/28 04:24:29;;;;;;;43.63;23.50;;;;;;;;;;5011926;28;20399;-50
2021/08/28 04:26:55;;;;;;;37.40;22.30;;;;;;;;;;5012289;28;20440;-49
2021/08/28 04:29:21;;;;;;;32.40;20.83;;;;;;;;;;5015840;28;20444;-49
2021/08/28 04:31:47;;;;;;;43.67;23.57;;;;;;;;;;5015644;28;20416;-49
2021/08/28 04:34:13;;;;;;;37.50;23.67;;;;;;;;;;5015846;28;20406;-49
2021/08/28 04:36:39;;;;;;;41.97;21.40;;;;;;;;;;5015792;28;20427;-49
2021/08/28 04:39:05;;;;;;;39.43;23.03;;;;;;;;;;5015736;28;20402;-48
2021/08/28 04:41:31;;;;;;;38.00;22.13;;;;;;;;;;5015450;28;20375;-48
2021/08/28 04:43:57;;;;;;;40.93;22.20;;;;;;;;;;5015766;28;20370;-48
2021/08/28 04:46:23;;;;;;;31.30;21.47;;;;;;;;;;5015614;28;20377;-48
2021/08/28 04:48:48;;;;;;;39.37;21.90;;;;;;;;;;5015525;28;20401;-47
2021/08/28 04:51:14;;;;;;;28.70;19.60;;;;;;;;;;5015303;28;20450;-47
2021/08/28 04:53:40;;;;;;;32.50;20.13;;;;;;;;;;5015519;28;20382;-47
2021/08/28 04:56:06;;;;;;;33.87;20.80;;;;;;;;;;5015404;28;20378;-49
2021/08/28 04:58:32;;;;;;;42.23;21.73;;;;;;;;;;5015166;28;20417;-50
2021/08/28 05:00:58;;;;;;;33.07;21.77;;;;;;;;;;5015100;28;20411;-50
2021/08/28 05:03:25;;;;;;;35.53;20.90;;;;;;;;;;5015072;28;20509;-49
2021/08/28 05:05:54;;;;;;;32.67;21.57;;;;;;;;;;5015288;28;20388;-49
2021/08/28 05:08:21;;;;;;;33.77;20.87;;;;;;;;;;5015123;28;20420;-48
2021/08/28 05:10:47;;;;;;;37.73;20.50;;;;;;;;;;4997401;28;20429;-45
2021/08/28 05:13:13;;;;;;;39.97;22.33;;;;;;;;;;5014867;28;20439;-47
2021/08/28 05:15:39;;;;;;;37.23;19.90;;;;;;;;;;5015038;28;20846;-50
2021/08/28 05:18:05;;;;;;;61.93;22.70;;;;;;;;;;5014903;28;20427;-50
2021/08/28 05:20:31;;;;;;;45.73;19.93;;;;;;;;;;5015068;28;20436;-49
2021/08/28 05:22:57;;;;;;;34.73;15.17;;;;;;;;;;5014703;28;20773;-48
2021/08/28 05:25:23;;;;;;;41.13;17.67;;;;;;;;;;5014852;28;20462;-48
2021/08/28 05:27:49;;;;;;;37.23;19.90;;;;;;;;;;5014747;28;20771;-47
2021/08/28 05:30:15;;;;;;;46.57;20.83;;;;;;;;;;5014696;28;20454;-48
2021/08/28 05:32:43;;;;;;;29.10;16.77;;;;;;;;;;5014539;28;20473;-49
2021/08/28 05:35:09;;;;;;;32.30;16.90;;;;;;;;;;5014732;28;20751;-49
2021/08/28 05:37:35;;;;;;;77.90;17.93;;;;;;;;;;5014096;28;20431;-48
2021/08/28 05:40:00;;;;;;;34.87;17.70;;;;;;;;;;5014533;28;20426;-49
2021/08/28 05:42:26;;;;;;;37.63;17.70;;;;;;;;;;5014355;28;20411;-49
2021/08/28 05:44:52;;;;;;;46.13;17.67;;;;;;;;;;5014511;28;20569;-48
2021/08/28 05:47:20;;;;;;;71.17;20.73;;;;;;;;;;5014467;28;20410;-48
2021/08/28 05:49:45;;;;;;;57.37;16.70;;;;;;;;;;5014329;28;20425;-49
2021/08/28 05:52:11;;;;;;;76.17;14.30;;;;;;;;;;5014089;28;20404;-49
2021/08/28 05:54:37;;;;;;;65.73;12.87;;;;;;;;;;5014382;28;20405;-50
2021/08/28 05:57:03;;;;;;;18.63;11.23;;;;;;;;;;5014175;28;20445;-49
2021/08/28 05:59:30;;;;;;;17.03;10.67;;;;;;;;;;5014408;28;20442;-49
2021/08/28 06:01:55;;;;;;;37.30;10.80;;;;;;;;;;5015526;28;20482;-48
2021/08/28 06:04:22;;;;;;;17.13;8.93;;;;;;;;;;5013938;28;20499;-47
2021/08/28 06:06:48;;;;;;;10.60;8.00;;;;;;;;;;5013997;28;20498;-48
2021/08/28 06:09:14;;;;;;;9.73;7.73;;;;;;;;;;5014182;28;20493;-47
2021/08/28 06:11:40;;;;;;;13.33;7.00;;;;;;;;;;5013042;28;20453;-48
2021/08/28 06:14:06;;;;;;;7.67;6.80;;;;;;;;;;5013270;28;20399;-49
2021/08/28 06:16:32;;;;;;;8.43;5.50;;;;;;;;;;5013693;28;21025;-49
2021/08/28 06:18:58;;;;;;;8.13;6.13;;;;;;;;;;5013434;28;20814;-50
2021/08/28 06:21:25;;;;;;;12.50;6.83;;;;;;;;;;5012780;28;20414;-47
2021/08/28 06:23:51;;;;;;;8.77;6.70;;;;;;;;;;5016491;28;20418;-48
2021/08/28 06:26:17;;;;;;;12.20;6.90;;;;;;;;;;5013245;28;20421;-48
2021/08/28 06:28:43;;;;;;;6.10;5.17;;;;;;;;;;5013799;28;20410;-47
2021/08/28 06:31:09;;;;;;;8.37;6.40;;;;;;;;;;5013057;28;20773;-49
2021/08/28 06:33:35;;;;;;;7.17;5.40;;;;;;;;;;5013715;28;20486;-49
2021/08/28 06:36:01;;;;;;;12.07;6.60;;;;;;;;;;5013572;28;20382;-49
2021/08/28 06:38:27;;;;;;;6.13;5.53;;;;;;;;;;5013376;28;20434;-49
2021/08/28 06:40:53;;;;;;;10.60;6.63;;;;;;;;;;5013132;28;20412;-49
2021/08/28 06:43:19;;;;;;;8.97;5.57;;;;;;;;;;5013496;28;20403;-48
2021/08/28 06:45:46;;;;;;;8.33;5.87;;;;;;;;;;5013483;28;20413;-49
2021/08/28 06:48:12;;;;;;;8.40;6.33;;;;;;;;;;5013242;28;20434;-47
2021/08/28 06:50:38;;;;;;;7.13;6.40;;;;;;;;;;5012324;28;20738;-49
2021/08/28 06:53:04;;;;;;;8.30;7.40;;;;;;;;;;5012980;28;20407;-50
2021/08/28 06:55:30;;;;;;;8.83;7.00;;;;;;;;;;5013239;28;20802;-49
2021/08/28 06:57:56;;;;;;;10.40;7.63;;;;;;;;;;5012867;28;20485;-49
2021/08/28 07:00:22;;;;;;;10.70;7.80;;;;;;;;;;5013572;28;20439;-49
2021/08/28 07:02:48;;;;;;;13.33;6.70;;;;;;;;;;5012775;28;20406;-48
2021/08/28 07:05:14;;;;;;;7.43;6.60;;;;;;;;;;5012888;28;20389;-48
2021/08/28 07:07:40;;;;;;;10.47;8.47;;;;;;;;;;5012912;28;20435;-49
2021/08/28 07:10:06;;;;;;;10.27;8.40;;;;;;;;;;5012847;28;20425;-48
2021/08/28 07:12:32;;;;;;;11.67;9.27;;;;;;;;;;5012476;28;20411;-48
2021/08/28 07:14:58;;;;;;;11.03;8.57;;;;;;;;;;5012919;28;20471;-48
2021/08/28 07:17:24;;;;;;;11.63;9.77;;;;;;;;;;5012791;28;20428;-47
2021/08/28 07:19:50;;;;;;;14.87;10.63;;;;;;;;;;5012510;28;20382;-49
2021/08/28 07:22:16;;;;;;;9.90;8.73;;;;;;;;;;5012550;28;20446;-48
2021/08/28 07:24:42;;;;;;;14.43;11.30;;;;;;;;;;5012657;28;20429;-49
2021/08/28 07:27:07;;;;;;;13.53;9.70;;;;;;;;;;5012616;28;20420;-48
2021/08/28 07:29:33;;;;;;;12.03;9.43;;;;;;;;;;5012540;28;20426;-48
2021/08/28 07:32:00;;;;;;;13.77;10.57;;;;;;;;;;5012373;28;20410;-48
2021/08/28 07:34:26;;;;;;;12.93;10.87;;;;;;;;;;5012413;28;20403;-49
2021/08/28 07:36:52;;;;;;;14.47;10.07;;;;;;;;;;5012426;28;20447;-47
2021/08/28 07:39:18;;;;;;;11.03;9.77;;;;;;;;;;5012468;28;20396;-46
2021/08/28 07:41:44;;;;;;;16.67;9.90;;;;;;;;;;5012264;28;20895;-47
2021/08/28 07:44:09;;;;;;;12.20;10.30;;;;;;;;;;5012149;28;20527;-47
2021/08/28 07:46:35;;;;;;;11.60;9.83;;;;;;;;;;5012289;28;20428;-49
2021/08/28 07:49:01;;;;;;;11.90;10.30;;;;;;;;;;5011445;28;20535;-47
2021/08/28 07:51:27;;;;;;;19.30;10.17;;;;;;;;;;5010677;28;20824;-49
2021/08/28 07:53:53;;;;;;;13.00;10.27;;;;;;;;;;5011403;28;20444;-48
2021/08/28 07:56:19;;;;;;;12.63;10.67;;;;;;;;;;5012223;28;20374;-50
2021/08/28 07:58:45;;;;;;;14.87;10.37;;;;;;;;;;5012043;28;20398;-48
2021/08/28 08:01:13;;;;;;;12.00;9.53;;;;;;;;;;5011729;28;20411;-49
2021/08/28 08:03:39;;;;;;;12.10;10.90;;;;;;;;;;5012209;28;20881;-48
2021/08/28 08:06:05;;;;;;;12.87;10.17;;;;;;;;;;5012144;28;20467;-49
2021/08/28 08:08:31;;;;;;;22.93;10.57;;;;;;;;;;5012175;28;20418;-49
2021/08/28 08:10:57;;;;;;;15.13;11.67;;;;;;;;;;5011719;28;20436;-49
2021/08/28 08:13:23;;;;;;;16.40;12.40;;;;;;;;;;5012167;28;20418;-49
2021/08/28 08:15:49;;;;;;;20.10;12.17;;;;;;;;;;5012040;28;20400;-48
2021/08/28 08:18:15;;;;;;;19.50;12.60;;;;;;;;;;5011977;28;20926;-49
2021/08/28 08:20:41;;;;;;;28.30;12.87;;;;;;;;;;5012154;28;20877;-45
2021/08/28 08:23:06;;;;;;;12.80;11.33;;;;;;;;;;5012067;28;20832;-48
2021/08/28 08:25:32;;;;;;;15.73;13.00;;;;;;;;;;5011951;28;20441;-48
2021/08/28 08:27:58;;;;;;;15.00;11.97;;;;;;;;;;5011942;28;20438;-47
2021/08/28 08:30:25;;;;;;;14.97;12.40;;;;;;;;;;5011872;28;20424;-49
2021/08/28 08:32:51;;;;;;;20.93;12.50;;;;;;;;;;5011706;28;20541;-48
2021/08/28 08:35:17;;;;;;;19.67;12.67;;;;;;;;;;5011870;28;20490;-47
2021/08/28 08:37:43;;;;;;;14.00;12.50;;;;;;;;;;5011898;28;20511;-49
2021/08/28 08:40:09;;;;;;;13.33;11.93;;;;;;;;;;5011842;28;20378;-49
2021/08/28 08:42:35;;;;;;;18.57;13.30;;;;;;;;;;5011472;28;20490;-49
2021/08/28 08:45:03;;;;;;;17.40;12.63;;;;;;;;;;5011919;28;20465;-50
2021/08/28 08:47:29;;;;;;;19.57;13.13;;;;;;;;;;5011749;28;20434;-49
2021/08/28 08:49:55;;;;;;;19.00;13.23;;;;;;;;;;5011790;28;20483;-49
2021/08/28 08:52:21;;;;;;;14.93;13.27;;;;;;;;;;5011519;28;20403;-49
2021/08/28 08:54:49;;;;;;;16.97;13.77;;;;;;;;;;5011740;28;20792;-50
2021/08/28 08:57:15;;;;;;;18.73;13.40;;;;;;;;;;5012368;28;20439;-49
2021/08/28 08:59:41;;;;;;;20.00;14.30;;;;;;;;;;5011710;28;20453;-49
2021/08/28 09:02:08;;;;;;;16.30;13.80;;;;;;;;;;5011417;28;20880;-49
2021/08/28 09:04:34;;;;;;;18.10;12.07;;;;;;;;;;5011727;28;20506;-49
2021/08/28 09:07:00;;;;;;;17.30;12.20;;;;;;;;;;5011711;28;20438;-49
2021/08/28 09:09:26;;;;;;;13.77;12.30;;;;;;;;;;5011585;28;20462;-47
2021/08/28 09:11:59;;;;;;;22.37;13.93;;;;;;;;;;5011305;28;20469;-48
2021/08/28 09:14:26;;;;;;;16.70;13.73;;;;;;;;;;5014186;28;20466;-48
2021/08/28 09:16:52;;;;;;;14.60;13.10;;;;;;;;;;5015151;28;20439;-47
2021/08/28 09:19:18;;;;;;;16.03;12.73;;;;;;;;;;5015141;28;20433;-49
2021/08/28 09:21:45;;;;;;;14.07;11.80;;;;;;;;;;5015008;28;20552;-48
2021/08/28 09:24:12;;;;;;;15.57;12.10;;;;;;;;;;5015060;28;20785;-48
2021/08/28 09:26:39;;;;;;;11.70;9.80;;;;;;;;;;5014967;28;20419;-48
2021/08/28 09:29:06;;;;;;;14.40;12.00;;;;;;;;;;4994969;28;20877;-49
2021/08/28 09:31:36;;;;;;;12.40;10.27;;;;;;;;;;4994812;28;20456;-49
2021/08/28 09:34:21;;;;;;;13.50;10.27;;;;;;;;;;4995247;28;20970;-48
2021/08/28 09:36:51;;;;;;;12.07;10.67;;;;;;;;;;4995142;28;20418;-48
2021/08/28 09:39:18;;;;;;;15.10;10.70;;;;;;;;;;4995015;28;20387;-47
2021/08/28 09:41:44;;;;;;;16.17;10.37;;;;;;;;;;4995051;28;20369;-49
2021/08/28 09:44:11;;;;;;;15.00;10.73;;;;;;;;;;4995184;28;20472;-48
2021/08/28 09:46:37;;;;;;;14.40;10.80;;;;;;;;;;4994965;28;20969;-49
2021/08/28 09:49:04;;;;;;;13.83;12.20;;;;;;;;;;4994978;28;20415;-48
2021/08/28 09:51:37;;;;;;;15.27;11.10;;;;;;;;;;4994501;28;20490;-49
2021/08/28 09:54:03;;;;;;;17.83;12.27;;;;;;;;;;4994665;28;20420;-48
2021/08/28 09:56:29;;;;;;;13.57;12.17;;;;;;;;;;4994746;28;20389;-49
2021/08/28 09:58:56;;;;;;;20.17;11.90;;;;;;;;;;4994929;28;20417;-50
2021/08/28 10:01:23;;;;;;;14.20;10.20;;;;;;;;;;4994445;28;20419;-50
2021/08/28 10:03:58;;;;;;;13.50;11.67;;;;;;;;;;4994726;28;20895;-47
2021/08/28 10:06:25;;;;;;;16.60;12.20;;;;;;;;;;4994327;28;20411;-49
2021/08/28 10:08:51;;;;;;;13.77;12.17;;;;;;;;;;4994565;28;20638;-49
2021/08/28 10:11:18;;;;;;;13.87;12.33;;;;;;;;;;4994157;28;20455;-48
2021/08/28 10:13:47;;;;;;;12.93;11.63;;;;;;;;;;4994674;28;20422;-46
2021/08/28 10:16:14;;;;;;;15.07;12.50;;;;;;;;;;4994453;28;20778;-48
2021/08/28 10:18:41;;;;;;;15.33;11.57;;;;;;;;;;4994520;28;20414;-49
2021/08/28 10:21:09;;;;;;;15.53;12.97;;;;;;;;;;4993962;28;20400;-48
2021/08/28 10:23:36;;;;;;;15.93;10.80;;;;;;;;;;4994319;28;20375;-48
2021/08/28 10:26:02;;;;;;;15.03;11.20;;;;;;;;;;4994187;28;20455;-49
2021/08/28 10:28:28;;;;;;;10.93;9.80;;;;;;;;;;5008548;28;20437;-49
2021/08/28 10:30:55;;;;;;;12.13;10.77;;;;;;;;;;5009558;28;20463;-46
2021/08/28 10:33:21;;;;;;;11.00;9.90;;;;;;;;;;5012071;28;20442;-48
2021/08/28 10:35:48;;;;;;;11.30;10.20;;;;;;;;;;5013744;28;20403;-48
2021/08/28 10:38:14;;;;;;;12.13;9.20;;;;;;;;;;5011827;28;20543;-48
2021/08/28 10:40:42;;;;;;;12.30;11.00;;;;;;;;;;5013691;28;20978;-49
2021/08/28 10:43:09;;;;;;;21.27;18.97;;;;;;;;;;5010169;28;21022;-48
2021/08/28 10:45:38;;;;;;;11.83;10.00;;;;;;;;;;5013568;28;20395;-49
2021/08/28 10:48:06;;;;;;;11.50;9.53;;;;;;;;;;5011458;28;20966;-49
2021/08/28 10:50:33;;;;;;;9.33;8.43;;;;;;;;;;5013372;28;20484;-48
2021/08/28 10:53:00;;;;;;;11.47;10.00;;;;;;;;;;5013070;28;20949;-48
2021/08/28 10:55:33;;;;;;;13.57;10.63;;;;;;;;;;5011837;28;20416;-50
2021/08/28 10:58:19;;;;;;;12.70;10.30;;;;;;;;;;5003748;28;20507;-49
2021/08/28 11:00:45;;;;;;;11.43;9.87;;;;;;;;;;5005022;28;20423;-48
2021/08/28 11:03:27;;;;;;;11.70;10.50;;;;;;;;;;5005280;28;20786;-48
2021/08/28 11:06:12;;;;;;;15.40;9.70;;;;;;;;;;4999815;28;20484;-48
2021/08/28 11:08:57;;;;;;;14.73;10.57;;;;;;;;;;4993448;28;20765;-49
2021/08/28 11:11:32;;;;;;;11.83;10.60;;;;;;;;;;4995622;28;20452;-50
2021/08/28 11:13:58;;;;;;;10.80;9.70;;;;;;;;;;5011163;28;20923;-49
2021/08/28 11:16:42;;;;;;;10.47;9.40;;;;;;;;;;5012904;28;20410;-47
2021/08/28 11:19:09;;;;;;;12.37;8.93;;;;;;;;;;5012125;28;20435;-48
2021/08/28 11:21:45;;;;;;;10.90;9.80;;;;;;;;;;5010731;28;20491;-50
2021/08/28 11:24:22;;;;;;;10.07;9.17;;;;;;;;;;5013062;28;20486;-50
2021/08/28 11:26:49;;;;;;;10.03;8.27;;;;;;;;;;5010401;28;20898;-49
2021/08/28 11:29:32;;;;;;;16.13;8.77;;;;;;;;;;5012810;28;20426;-49
2021/08/28 11:32:05;;;;;;;7.30;6.70;;;;;;;;;;5011879;28;20439;-49
2021/08/28 11:34:31;;;;;;;8.00;7.20;;;;;;;;;;5012737;28;20400;-50
2021/08/28 11:37:16;;;;;;;7.77;7.10;;;;;;;;;;5011273;28;20439;-48
2021/08/28 11:39:45;;;;;;;8.30;7.50;;;;;;;;;;5012621;28;20406;-49
2021/08/28 11:42:11;;;;;;;7.37;6.70;;;;;;;;;;5010436;28;20985;-50
2021/08/28 11:44:38;;;;;;;7.43;6.73;;;;;;;;;;5012649;28;20403;-50
2021/08/28 11:47:04;;;;;;;10.50;7.40;;;;;;;;;;5011757;28;20472;-48
2021/08/28 11:49:32;;;;;;;8.40;7.60;;;;;;;;;;5012310;28;20940;-48
2021/08/28 11:52:00;;;;;;;7.43;6.70;;;;;;;;;;5011541;28;20412;-50
2021/08/28 11:54:26;;;;;;;6.80;6.17;;;;;;;;;;5012466;28;20399;-50
2021/08/28 11:56:59;;;;;;;39.47;22.00;;;;;;;;;;5010383;28;20443;-50
2021/08/28 11:59:35;;;;;;;8.83;7.73;;;;;;;;;;5012457;28;20399;-50
2021/08/28 12:02:01;;;;;;;12.70;9.53;;;;;;;;;;5011389;28;20444;-51
2021/08/28 12:04:27;;;;;;;6.53;5.90;;;;;;;;;;5016558;28;20461;-50
2021/08/28 12:06:53;;;;;;;7.70;6.90;;;;;;;;;;5011097;28;20841;-50
2021/08/28 12:09:22;;;;;;;30.77;22.90;;;;;;;;;;5008904;28;20422;-49
2021/08/28 12:11:49;;;;;;;8.00;7.20;;;;;;;;;;5009973;28;20431;-50
2021/08/28 12:14:15;;;;;;;7.23;6.40;;;;;;;;;;5012154;28;20435;-50
2021/08/28 12:16:42;;;;;;;20.97;16.93;;;;;;;;;;5011046;28;20814;-50
2021/08/28 12:19:15;;;;;;;6.40;5.30;;;;;;;;;;5011889;28;20890;-48
2021/08/28 12:21:42;;;;;;;6.03;5.53;;;;;;;;;;5011423;28;20929;-50
2021/08/28 12:24:13;;;;;;;8.93;6.33;;;;;;;;;;5011872;28;20483;-50
2021/08/28 12:26:39;;;;;;;6.70;6.10;;;;;;;;;;5010724;28;20442;-50
2021/08/28 12:29:05;;;;;;;7.00;6.40;;;;;;;;;;5011849;28;20819;-49
2021/08/28 12:31:31;;;;;;;6.23;5.70;;;;;;;;;;5010788;28;20516;-49
2021/08/28 12:34:01;;;;;;;7.00;6.30;;;;;;;;;;5010969;28;20429;-48
2021/08/28 12:36:28;;;;;;;15.10;8.00;;;;;;;;;;5011745;28;20423;-49
2021/08/28 12:39:00;;;;;;;5.07;4.57;;;;;;;;;;5011305;28;20429;-50
2021/08/28 12:41:27;;;;;;;5.40;5.00;;;;;;;;;;5009626;28;20426;-50
2021/08/28 12:43:53;;;;;;;6.53;5.93;;;;;;;;;;5011856;28;20407;-50
2021/08/28 12:46:19;;;;;;;5.90;5.40;;;;;;;;;;5011082;28;20438;-50
2021/08/28 12:49:04;;;;;;;4.67;4.37;;;;;;;;;;5013451;28;20437;-49
2021/08/28 12:51:30;;;;;;;4.10;3.80;;;;;;;;;;5015195;28;20553;-50
2021/08/28 12:53:56;;;;;;;4.57;4.17;;;;;;;;;;5014704;28;20441;-49
2021/08/28 12:56:22;;;;;;;4.20;3.77;;;;;;;;;;5012466;28;20426;-50
2021/08/28 12:58:48;;;;;;;4.00;3.70;;;;;;;;;;5014347;28;20425;-50
2021/08/28 13:01:14;;;;;;;6.67;3.83;;;;;;;;;;4995606;28;20403;-50
2021/08/28 13:03:47;;;;;;;4.27;3.80;;;;;;;;;;4995601;28;20403;-49
2021/08/28 13:06:22;;;;;;;4.43;3.97;;;;;;;;;;5015510;28;20402;-50
2021/08/28 13:08:49;;;;;;;4.07;3.77;;;;;;;;;;5014518;28;20950;-50
2021/08/28 13:11:20;;;;;;;3.80;3.50;;;;;;;;;;5013187;28;20515;-50
2021/08/28 13:13:58;;;;;;;5.23;4.70;;;;;;;;;;5014069;28;20407;-49
2021/08/28 13:16:24;;;;;;;4.13;3.83;;;;;;;;;;5014326;28;20838;-50
2021/08/28 13:19:08;;;;;;;6.20;5.67;;;;;;;;;;5015120;28;20396;-50
2021/08/28 13:21:38;;;;;;;4.47;3.50;;;;;;;;;;5014165;28;20505;-49
2021/08/28 13:24:30;;;;;;;4.80;4.40;;;;;;;;;;5014229;28;20521;-48
2021/08/28 13:27:03;;;;;;;8.63;4.30;;;;;;;;;;5009762;28;20458;-50
2021/08/28 13:29:30;;;;;;;4.80;4.40;;;;;;;;;;5014974;28;20419;-50
2021/08/28 13:32:05;;;;;;;5.30;4.80;;;;;;;;;;5013724;28;20423;-49
2021/08/28 13:34:40;;;;;;;8.80;5.30;;;;;;;;;;5014893;28;20395;-49
2021/08/28 13:37:07;;;;;;;7.60;5.30;;;;;;;;;;5012109;28;20461;-47
2021/08/28 13:39:33;;;;;;;6.63;6.03;;;;;;;;;;5014754;28;20403;-48
2021/08/28 13:41:59;;;;;;;9.20;6.10;;;;;;;;;;5013612;28;20431;-50
2021/08/28 13:44:25;;;;;;;9.57;7.60;;;;;;;;;;5014706;28;20450;-49
2021/08/28 13:46:51;;;;;;;8.00;7.27;;;;;;;;;;5014476;28;20927;-48
2021/08/28 13:49:17;;;;;;;9.97;7.73;;;;;;;;;;5012641;28;20425;-49
2021/08/28 13:51:43;;;;;;;9.10;7.80;;;;;;;;;;5013280;28;20842;-50
2021/08/28 13:54:09;;;;;;;8.50;7.60;;;;;;;;;;5014634;28;20473;-50
2021/08/28 13:56:35;;;;;;;10.40;7.27;;;;;;;;;;5013531;28;20803;-49
2021/08/28 13:59:01;;;;;;;6.93;6.30;;;;;;;;;;5014013;28;20537;-50
2021/08/28 14:01:27;;;;;;;6.50;5.50;;;;;;;;;;5013252;28;20914;-50
2021/08/28 14:03:53;;;;;;;8.50;6.30;;;;;;;;;;5014236;28;20774;-49
2021/08/28 14:06:19;;;;;;;8.33;6.23;;;;;;;;;;5012336;28;20435;-50
2021/08/28 14:08:45;;;;;;;6.53;5.97;;;;;;;;;;5014274;28;20399;-50
2021/08/28 14:11:11;;;;;;;6.50;5.90;;;;;;;;;;5012968;28;20825;-49
2021/08/28 14:13:37;;;;;;;6.97;6.17;;;;;;;;;;5014164;28;20477;-50
2021/08/28 14:16:03;;;;;;;10.40;8.47;;;;;;;;;;5012259;28;20486;-50
2021/08/28 14:18:29;;;;;;;18.10;13.00;;;;;;;;;;5012949;28;20451;-50
2021/08/28 14:20:55;;;;;;;9.83;7.20;;;;;;;;;;5013711;28;20411;-50
2021/08/28 14:23:23;;;;;;;6.80;6.20;;;;;;;;;;5013193;28;20435;-50
2021/08/28 14:25:49;;;;;;;8.60;5.27;;;;;;;;;;5013935;28;20497;-50
2021/08/28 14:28:15;;;;;;;9.30;5.00;;;;;;;;;;5011988;28;20461;-49